sensor_id;sensor_type;location;lat;lon;timestamp;temperature;humidity
56234;DHT22;42141;53.240;6.580;2022-07-23T00:00:19;15.30;99.90
56234;DHT22;42141;53.240;6.580;2022-07-23T00:02:46;15.30;99.90
56234;DHT22;42141;53.240;6.580;2022-07-23T00:05:15;15.20;99.90
56234;DHT22;42141;53.240;6.580;2022-07-23T00:07:43;15.20;99.90
56234;DHT22;42141;53.240;6.580;2022-07-23T00:10:09;14.40;99.90
56234;DHT22;42141;53.240;6.580;2022-07-23T00:12:36;15.20;99.90
56234;DHT22;42141;53.240;6.580;2022-07-23T00:15:03;15.10;99.90
56234;DHT22;42141;53.240;6.580;2022-07-23T00:17:31;15.10;99.90
56234;DHT22;42141;53.240;6.580;2022-07-23T00:20:02;15.00;99.90
56234;DHT22;42141;53.240;6.580;2022-07-23T00:22:28;13.90;99.90
56234;DHT22;42141;53.240;6.580;2022-07-23T00:24:56;14.90;99.90
56234;DHT22;42141;53.240;6.580;2022-07-23T00:27:22;14.90;99.90
56234;DHT22;42141;53.240;6.580;2022-07-23T00:29:48;14.80;99.90
56234;DHT22;42141;53.240;6.580;2022-07-23T00:32:18;14.80;99.90
56234;DHT22;42141;53.240;6.580;2022-07-23T00:34:45;14.70;99.90
56234;DHT22;42141;53.240;6.580;2022-07-23T00:37:11;14.50;99.90
56234;DHT22;42141;53.240;6.580;2022-07-23T00:39:38;14.60;99.90
56234;DHT22;42141;53.240;6.580;2022-07-23T00:42:05;14.60;99.90
56234;DHT22;42141;53.240;6.580;2022-07-23T00:44:31;14.60;99.90
56234;DHT22;42141;53.240;6.580;2022-07-23T00:46:59;14.50;99.90
56234;DHT22;42141;53.240;6.580;2022-07-23T00:49:27;14.50;99.90
56234;DHT22;42141;53.240;6.580;2022-07-23T00:51:54;14.50;99.90
56234;DHT22;42141;53.240;6.580;2022-07-23T00:54:26;14.40;99.90
56234;DHT22;42141;53.240;6.580;2022-07-23T00:56:59;14.40;99.90
56234;DHT22;42141;53.240;6.580;2022-07-23T00:59:25;14.40;99.90
56234;DHT22;42141;53.240;6.580;2022-07-23T01:01:51;14.40;99.90
56234;DHT22;42141;53.240;6.580;2022-07-23T01:04:17;14.40;99.90
56234;DHT22;42141;53.240;6.580;2022-07-23T01:06:45;13.90;99.90
56234;DHT22;42141;53.240;6.580;2022-07-23T01:09:11;15.10;99.90
56234;DHT22;42141;53.240;6.580;2022-07-23T01:11:37;14.40;99.90
56234;DHT22;42141;53.240;6.580;2022-07-23T01:14:17;14.60;99.90
56234;DHT22;42141;53.240;6.580;2022-07-23T01:16:46;14.50;99.90
56234;DHT22;42141;53.240;6.580;2022-07-23T01:19:12;14.50;99.90
56234;DHT22;42141;53.240;6.580;2022-07-23T01:21:50;14.60;99.90
56234;DHT22;42141;53.240;6.580;2022-07-23T01:24:17;14.60;99.90
56234;DHT22;42141;53.240;6.580;2022-07-23T01:26:49;14.60;99.90
56234;DHT22;42141;53.240;6.580;2022-07-23T01:29:27;14.60;99.90
56234;DHT22;42141;53.240;6.580;2022-07-23T01:32:02;15.80;99.90
56234;DHT22;42141;53.240;6.580;2022-07-23T01:34:28;14.60;99.90
56234;DHT22;42141;53.240;6.580;2022-07-23T01:36:54;14.50;99.90
56234;DHT22;42141;53.240;6.580;2022-07-23T01:39:25;14.70;99.90
56234;DHT22;42141;53.240;6.580;2022-07-23T01:41:58;14.70;99.90
56234;DHT22;42141;53.240;6.580;2022-07-23T01:44:24;14.90;99.90
56234;DHT22;42141;53.240;6.580;2022-07-23T01:46:49;15.30;99.90
56234;DHT22;42141;53.240;6.580;2022-07-23T01:49:15;14.70;99.90
56234;DHT22;42141;53.240;6.580;2022-07-23T01:51:50;14.70;99.90
56234;DHT22;42141;53.240;6.580;2022-07-23T01:54:32;14.80;99.90
56234;DHT22;42141;53.240;6.580;2022-07-23T01:57:02;14.80;99.90
56234;DHT22;42141;53.240;6.580;2022-07-23T01:59:28;14.80;99.90
56234;DHT22;42141;53.240;6.580;2022-07-23T02:01:55;14.80;99.90
56234;DHT22;42141;53.240;6.580;2022-07-23T02:04:23;14.80;99.90
56234;DHT22;42141;53.240;6.580;2022-07-23T02:06:49;14.80;99.90
56234;DHT22;42141;53.240;6.580;2022-07-23T02:09:15;14.80;99.90
56234;DHT22;42141;53.240;6.580;2022-07-23T02:11:41;14.00;99.90
56234;DHT22;42141;53.240;6.580;2022-07-23T02:14:16;14.90;99.90
56234;DHT22;42141;53.240;6.580;2022-07-23T02:16:50;14.90;99.90
56234;DHT22;42141;53.240;6.580;2022-07-23T02:19:16;14.90;99.90
56234;DHT22;42141;53.240;6.580;2022-07-23T02:21:44;14.90;99.90
56234;DHT22;42141;53.240;6.580;2022-07-23T02:24:09;13.90;99.90
56234;DHT22;42141;53.240;6.580;2022-07-23T02:26:35;14.90;99.90
56234;DHT22;42141;53.240;6.580;2022-07-23T02:29:03;14.90;99.90
56234;DHT22;42141;53.240;6.580;2022-07-23T02:31:29;14.90;99.90
56234;DHT22;42141;53.240;6.580;2022-07-23T02:33:55;14.90;99.90
56234;DHT22;42141;53.240;6.580;2022-07-23T02:36:22;15.00;99.90
56234;DHT22;42141;53.240;6.580;2022-07-23T02:38:48;15.00;99.90
56234;DHT22;42141;53.240;6.580;2022-07-23T02:41:26;15.00;99.90
56234;DHT22;42141;53.240;6.580;2022-07-23T02:43:57;15.00;99.90
56234;DHT22;42141;53.240;6.580;2022-07-23T02:46:23;15.60;99.90
56234;DHT22;42141;53.240;6.580;2022-07-23T02:48:49;15.00;99.90
56234;DHT22;42141;53.240;6.580;2022-07-23T02:51:15;15.00;99.90
56234;DHT22;42141;53.240;6.580;2022-07-23T02:53:41;14.50;99.90
56234;DHT22;42141;53.240;6.580;2022-07-23T02:56:06;15.10;99.90
56234;DHT22;42141;53.240;6.580;2022-07-23T02:58:34;15.00;99.90
56234;DHT22;42141;53.240;6.580;2022-07-23T03:00:59;15.10;99.90
56234;DHT22;42141;53.240;6.580;2022-07-23T03:03:25;15.00;99.90
56234;DHT22;42141;53.240;6.580;2022-07-23T03:05:52;15.00;99.90
56234;DHT22;42141;53.240;6.580;2022-07-23T03:08:18;15.70;99.90
56234;DHT22;42141;53.240;6.580;2022-07-23T03:10:44;15.00;99.90
56234;DHT22;42141;53.240;6.580;2022-07-23T03:13:10;15.00;99.90
56234;DHT22;42141;53.240;6.580;2022-07-23T03:15:36;15.00;99.90
56234;DHT22;42141;53.240;6.580;2022-07-23T03:18:02;15.00;99.90
56234;DHT22;42141;53.240;6.580;2022-07-23T03:20:29;15.00;99.90
56234;DHT22;42141;53.240;6.580;2022-07-23T03:22:55;15.80;99.90
56234;DHT22;42141;53.240;6.580;2022-07-23T03:25:21;15.00;99.90
56234;DHT22;42141;53.240;6.580;2022-07-23T03:27:49;15.00;99.90
56234;DHT22;42141;53.240;6.580;2022-07-23T03:30:16;15.00;99.90
56234;DHT22;42141;53.240;6.580;2022-07-23T03:32:42;15.00;99.90
56234;DHT22;42141;53.240;6.580;2022-07-23T03:35:10;15.00;99.90
56234;DHT22;42141;53.240;6.580;2022-07-23T03:37:41;15.00;99.90
56234;DHT22;42141;53.240;6.580;2022-07-23T03:40:08;15.90;99.90
56234;DHT22;42141;53.240;6.580;2022-07-23T03:42:34;15.00;99.90
56234;DHT22;42141;53.240;6.580;2022-07-23T03:45:07;15.00;99.90
56234;DHT22;42141;53.240;6.580;2022-07-23T03:47:34;15.00;99.90
56234;DHT22;42141;53.240;6.580;2022-07-23T03:50:03;15.00;99.90
56234;DHT22;42141;53.240;6.580;2022-07-23T03:52:29;15.00;99.90
56234;DHT22;42141;53.240;6.580;2022-07-23T03:54:55;14.70;99.90
56234;DHT22;42141;53.240;6.580;2022-07-23T03:57:20;14.80;99.90
56234;DHT22;42141;53.240;6.580;2022-07-23T03:59:46;14.90;99.90
56234;DHT22;42141;53.240;6.580;2022-07-23T04:02:14;15.00;99.90
56234;DHT22;42141;53.240;6.580;2022-07-23T04:04:40;15.00;99.90
56234;DHT22;42141;53.240;6.580;2022-07-23T04:07:06;15.00;99.90
56234;DHT22;42141;53.240;6.580;2022-07-23T04:09:40;14.40;99.90
56234;DHT22;42141;53.240;6.580;2022-07-23T04:12:06;15.00;99.90
56234;DHT22;42141;53.240;6.580;2022-07-23T04:14:33;14.90;99.90
56234;DHT22;42141;53.240;6.580;2022-07-23T04:16:59;15.00;99.90
56234;DHT22;42141;53.240;6.580;2022-07-23T04:19:37;15.00;99.90
56234;DHT22;42141;53.240;6.580;2022-07-23T04:22:06;15.00;99.90
56234;DHT22;42141;53.240;6.580;2022-07-23T04:24:32;16.00;99.90
56234;DHT22;42141;53.240;6.580;2022-07-23T04:26:58;15.10;99.90
56234;DHT22;42141;53.240;6.580;2022-07-23T04:29:24;15.00;99.90
56234;DHT22;42141;53.240;6.580;2022-07-23T04:31:56;15.00;99.90
56234;DHT22;42141;53.240;6.580;2022-07-23T04:34:28;15.10;99.90
56234;DHT22;42141;53.240;6.580;2022-07-23T04:36:55;15.10;99.90
56234;DHT22;42141;53.240;6.580;2022-07-23T04:39:28;15.10;99.90
56234;DHT22;42141;53.240;6.580;2022-07-23T04:42:12;15.10;99.90
56234;DHT22;42141;53.240;6.580;2022-07-23T04:44:40;15.10;99.90
56234;DHT22;42141;53.240;6.580;2022-07-23T04:47:05;15.20;99.90
56234;DHT22;42141;53.240;6.580;2022-07-23T04:49:34;15.20;99.90
56234;DHT22;42141;53.240;6.580;2022-07-23T04:52:04;16.00;99.90
56234;DHT22;42141;53.240;6.580;2022-07-23T04:54:29;15.20;99.90
56234;DHT22;42141;53.240;6.580;2022-07-23T04:56:55;15.20;99.90
56234;DHT22;42141;53.240;6.580;2022-07-23T04:59:21;16.30;99.90
56234;DHT22;42141;53.240;6.580;2022-07-23T05:01:47;15.20;99.90
56234;DHT22;42141;53.240;6.580;2022-07-23T05:04:13;15.20;99.90
56234;DHT22;42141;53.240;6.580;2022-07-23T05:06:39;15.20;99.90
56234;DHT22;42141;53.240;6.580;2022-07-23T05:09:04;15.20;99.90
56234;DHT22;42141;53.240;6.580;2022-07-23T05:11:30;15.30;99.90
56234;DHT22;42141;53.240;6.580;2022-07-23T05:13:56;15.40;99.90
56234;DHT22;42141;53.240;6.580;2022-07-23T05:16:22;15.50;99.90
56234;DHT22;42141;53.240;6.580;2022-07-23T05:18:47;15.40;99.90
56234;DHT22;42141;53.240;6.580;2022-07-23T05:21:13;15.60;99.90
56234;DHT22;42141;53.240;6.580;2022-07-23T05:23:39;15.50;99.90
56234;DHT22;42141;53.240;6.580;2022-07-23T05:26:04;15.50;99.90
56234;DHT22;42141;53.240;6.580;2022-07-23T05:28:30;15.60;99.90
56234;DHT22;42141;53.240;6.580;2022-07-23T05:30:56;15.60;99.90
56234;DHT22;42141;53.240;6.580;2022-07-23T05:33:22;16.10;99.90
56234;DHT22;42141;53.240;6.580;2022-07-23T05:35:47;15.60;99.90
56234;DHT22;42141;53.240;6.580;2022-07-23T05:38:13;15.60;99.90
56234;DHT22;42141;53.240;6.580;2022-07-23T05:40:39;15.60;99.90
56234;DHT22;42141;53.240;6.580;2022-07-23T05:43:04;16.70;99.90
56234;DHT22;42141;53.240;6.580;2022-07-23T05:45:30;15.60;99.90
56234;DHT22;42141;53.240;6.580;2022-07-23T05:47:56;15.70;99.90
56234;DHT22;42141;53.240;6.580;2022-07-23T05:50:22;15.80;99.90
56234;DHT22;42141;53.240;6.580;2022-07-23T05:52:47;15.90;99.90
56234;DHT22;42141;53.240;6.580;2022-07-23T05:55:13;16.00;99.90
56234;DHT22;42141;53.240;6.580;2022-07-23T05:57:40;16.00;99.90
56234;DHT22;42141;53.240;6.580;2022-07-23T06:00:08;16.10;99.90
56234;DHT22;42141;53.240;6.580;2022-07-23T06:02:35;16.20;99.90
56234;DHT22;42141;53.240;6.580;2022-07-23T06:05:01;16.20;99.90
56234;DHT22;42141;53.240;6.580;2022-07-23T06:07:26;16.10;99.90
56234;DHT22;42141;53.240;6.580;2022-07-23T06:09:52;16.20;99.90
56234;DHT22;42141;53.240;6.580;2022-07-23T06:12:18;16.10;99.90
56234;DHT22;42141;53.240;6.580;2022-07-23T06:14:50;16.10;99.90
56234;DHT22;42141;53.240;6.580;2022-07-23T06:17:18;16.10;99.90
56234;DHT22;42141;53.240;6.580;2022-07-23T06:19:44;16.10;99.90
56234;DHT22;42141;53.240;6.580;2022-07-23T06:22:09;16.00;99.90
56234;DHT22;42141;53.240;6.580;2022-07-23T06:24:35;16.00;99.90
56234;DHT22;42141;53.240;6.580;2022-07-23T06:27:01;16.00;99.90
56234;DHT22;42141;53.240;6.580;2022-07-23T06:29:27;16.10;99.90
56234;DHT22;42141;53.240;6.580;2022-07-23T06:31:52;16.20;99.90
56234;DHT22;42141;53.240;6.580;2022-07-23T06:34:18;16.30;99.90
56234;DHT22;42141;53.240;6.580;2022-07-23T06:36:44;16.40;99.90
56234;DHT22;42141;53.240;6.580;2022-07-23T06:39:09;16.40;99.90
56234;DHT22;42141;53.240;6.580;2022-07-23T06:41:35;16.50;99.90
56234;DHT22;42141;53.240;6.580;2022-07-23T06:44:01;16.60;99.90
56234;DHT22;42141;53.240;6.580;2022-07-23T06:46:27;16.70;99.90
56234;DHT22;42141;53.240;6.580;2022-07-23T06:48:53;16.20;99.90
56234;DHT22;42141;53.240;6.580;2022-07-23T06:51:18;16.90;99.90
56234;DHT22;42141;53.240;6.580;2022-07-23T06:53:44;16.90;99.90
56234;DHT22;42141;53.240;6.580;2022-07-23T06:56:10;17.00;99.90
56234;DHT22;42141;53.240;6.580;2022-07-23T06:58:36;16.90;99.90
56234;DHT22;42141;53.240;6.580;2022-07-23T07:01:02;17.10;99.90
56234;DHT22;42141;53.240;6.580;2022-07-23T07:03:27;17.20;99.90
56234;DHT22;42141;53.240;6.580;2022-07-23T07:05:53;17.30;99.90
56234;DHT22;42141;53.240;6.580;2022-07-23T07:08:20;17.50;99.90
56234;DHT22;42141;53.240;6.580;2022-07-23T07:10:45;17.60;99.90
56234;DHT22;42141;53.240;6.580;2022-07-23T07:13:12;17.70;99.90
56234;DHT22;42141;53.240;6.580;2022-07-23T07:15:37;18.00;99.90
56234;DHT22;42141;53.240;6.580;2022-07-23T07:18:03;17.80;99.90
56234;DHT22;42141;53.240;6.580;2022-07-23T07:20:29;17.80;99.90
56234;DHT22;42141;53.240;6.580;2022-07-23T07:22:55;17.90;99.90
56234;DHT22;42141;53.240;6.580;2022-07-23T07:25:21;17.90;99.90
56234;DHT22;42141;53.240;6.580;2022-07-23T07:27:46;18.00;99.90
56234;DHT22;42141;53.240;6.580;2022-07-23T07:30:12;18.00;99.90
56234;DHT22;42141;53.240;6.580;2022-07-23T07:32:39;18.10;99.90
56234;DHT22;42141;53.240;6.580;2022-07-23T07:35:05;18.20;99.90
56234;DHT22;42141;53.240;6.580;2022-07-23T07:37:31;18.50;99.90
56234;DHT22;42141;53.240;6.580;2022-07-23T07:39:57;18.60;99.90
56234;DHT22;42141;53.240;6.580;2022-07-23T07:42:23;18.90;99.90
56234;DHT22;42141;53.240;6.580;2022-07-23T07:44:48;19.10;99.90
56234;DHT22;42141;53.240;6.580;2022-07-23T07:47:14;19.30;99.90
56234;DHT22;42141;53.240;6.580;2022-07-23T07:49:43;19.40;99.90
56234;DHT22;42141;53.240;6.580;2022-07-23T07:52:10;19.40;99.90
56234;DHT22;42141;53.240;6.580;2022-07-23T07:54:38;19.30;99.90
56234;DHT22;42141;53.240;6.580;2022-07-23T07:57:03;19.30;99.90
56234;DHT22;42141;53.240;6.580;2022-07-23T07:59:29;19.30;99.90
56234;DHT22;42141;53.240;6.580;2022-07-23T08:01:55;19.30;99.90
56234;DHT22;42141;53.240;6.580;2022-07-23T08:04:21;18.70;99.90
56234;DHT22;42141;53.240;6.580;2022-07-23T08:06:46;19.50;99.90
56234;DHT22;42141;53.240;6.580;2022-07-23T08:09:12;19.60;99.90
56234;DHT22;42141;53.240;6.580;2022-07-23T08:11:41;19.70;99.90
56234;DHT22;42141;53.240;6.580;2022-07-23T08:14:07;19.90;99.90
56234;DHT22;42141;53.240;6.580;2022-07-23T08:16:32;19.90;99.90
56234;DHT22;42141;53.240;6.580;2022-07-23T08:18:58;19.80;99.90
56234;DHT22;42141;53.240;6.580;2022-07-23T08:21:24;19.70;99.90
56234;DHT22;42141;53.240;6.580;2022-07-23T08:23:50;19.70;99.90
56234;DHT22;42141;53.240;6.580;2022-07-23T08:26:15;19.00;99.90
56234;DHT22;42141;53.240;6.580;2022-07-23T08:28:41;19.50;99.90
56234;DHT22;42141;53.240;6.580;2022-07-23T08:31:07;19.50;99.90
56234;DHT22;42141;53.240;6.580;2022-07-23T08:33:33;19.70;99.90
56234;DHT22;42141;53.240;6.580;2022-07-23T08:35:59;19.90;99.90
56234;DHT22;42141;53.240;6.580;2022-07-23T08:38:25;20.20;99.90
56234;DHT22;42141;53.240;6.580;2022-07-23T08:40:53;20.30;99.90
56234;DHT22;42141;53.240;6.580;2022-07-23T08:43:23;20.40;99.90
56234;DHT22;42141;53.240;6.580;2022-07-23T08:45:51;20.40;99.90
56234;DHT22;42141;53.240;6.580;2022-07-23T08:48:19;20.40;99.90
56234;DHT22;42141;53.240;6.580;2022-07-23T08:50:49;20.30;99.90
56234;DHT22;42141;53.240;6.580;2022-07-23T08:53:17;20.30;99.90
56234;DHT22;42141;53.240;6.580;2022-07-23T08:55:44;20.20;99.90
56234;DHT22;42141;53.240;6.580;2022-07-23T08:58:11;20.30;99.90
56234;DHT22;42141;53.240;6.580;2022-07-23T09:00:37;20.40;99.90
56234;DHT22;42141;53.240;6.580;2022-07-23T09:03:03;20.50;99.90
56234;DHT22;42141;53.240;6.580;2022-07-23T09:05:29;20.70;99.90
56234;DHT22;42141;53.240;6.580;2022-07-23T09:10:30;20.90;99.90
56234;DHT22;42141;53.240;6.580;2022-07-23T09:12:56;20.90;99.90
56234;DHT22;42141;53.240;6.580;2022-07-23T09:15:22;21.00;99.90
56234;DHT22;42141;53.240;6.580;2022-07-23T09:17:48;21.10;99.90
56234;DHT22;42141;53.240;6.580;2022-07-23T09:20:16;21.20;99.90
56234;DHT22;42141;53.240;6.580;2022-07-23T09:22:46;21.10;99.90
56234;DHT22;42141;53.240;6.580;2022-07-23T09:25:18;21.00;99.90
56234;DHT22;42141;53.240;6.580;2022-07-23T09:27:54;21.60;99.90
56234;DHT22;42141;53.240;6.580;2022-07-23T09:30:29;21.00;99.90
56234;DHT22;42141;53.240;6.580;2022-07-23T09:33:09;21.10;99.90
56234;DHT22;42141;53.240;6.580;2022-07-23T09:35:55;21.10;99.90
56234;DHT22;42141;53.240;6.580;2022-07-23T09:38:25;21.10;99.90
56234;DHT22;42141;53.240;6.580;2022-07-23T09:41:10;21.10;99.90
56234;DHT22;42141;53.240;6.580;2022-07-23T09:43:37;21.20;99.90
56234;DHT22;42141;53.240;6.580;2022-07-23T09:46:27;21.30;99.90
56234;DHT22;42141;53.240;6.580;2022-07-23T09:48:54;21.30;99.90
56234;DHT22;42141;53.240;6.580;2022-07-23T09:51:23;21.30;99.90
56234;DHT22;42141;53.240;6.580;2022-07-23T09:54:33;21.30;99.90
56234;DHT22;42141;53.240;6.580;2022-07-23T09:57:07;21.40;99.90
56234;DHT22;42141;53.240;6.580;2022-07-23T09:59:46;21.60;99.90
56234;DHT22;42141;53.240;6.580;2022-07-23T10:02:13;21.70;99.90
56234;DHT22;42141;53.240;6.580;2022-07-23T10:04:40;21.80;99.90
56234;DHT22;42141;53.240;6.580;2022-07-23T10:07:08;21.50;99.90
56234;DHT22;42141;53.240;6.580;2022-07-23T10:09:37;21.80;99.90
56234;DHT22;42141;53.240;6.580;2022-07-23T10:12:08;21.80;99.90
56234;DHT22;42141;53.240;6.580;2022-07-23T10:14:39;21.80;99.90
56234;DHT22;42141;53.240;6.580;2022-07-23T10:17:06;21.70;99.90
56234;DHT22;42141;53.240;6.580;2022-07-23T10:19:33;21.70;99.90
56234;DHT22;42141;53.240;6.580;2022-07-23T10:22:23;21.70;99.90
56234;DHT22;42141;53.240;6.580;2022-07-23T10:33:51;21.20;99.90
56234;DHT22;42141;53.240;6.580;2022-07-23T10:36:59;21.20;99.90
56234;DHT22;42141;53.240;6.580;2022-07-23T10:39:34;21.30;99.90
56234;DHT22;42141;53.240;6.580;2022-07-23T10:42:11;21.30;99.90
56234;DHT22;42141;53.240;6.580;2022-07-23T10:44:41;21.10;99.90
56234;DHT22;42141;53.240;6.580;2022-07-23T10:47:09;21.30;99.90
56234;DHT22;42141;53.240;6.580;2022-07-23T10:49:48;21.40;99.90
56234;DHT22;42141;53.240;6.580;2022-07-23T10:52:32;21.40;99.90
56234;DHT22;42141;53.240;6.580;2022-07-23T10:57:29;21.80;99.90
56234;DHT22;42141;53.240;6.580;2022-07-23T11:02:35;22.20;99.90
56234;DHT22;42141;53.240;6.580;2022-07-23T11:05:54;22.30;99.90
56234;DHT22;42141;53.240;6.580;2022-07-23T11:08:23;22.20;99.90
56234;DHT22;42141;53.240;6.580;2022-07-23T11:11:10;22.30;99.90
56234;DHT22;42141;53.240;6.580;2022-07-23T11:13:42;22.00;99.90
56234;DHT22;42141;53.240;6.580;2022-07-23T11:24:06;21.80;99.90
56234;DHT22;42141;53.240;6.580;2022-07-23T11:32:22;21.70;99.90
56234;DHT22;42141;53.240;6.580;2022-07-23T11:34:50;21.60;99.90
56234;DHT22;42141;53.240;6.580;2022-07-23T11:40:00;21.50;99.90
56234;DHT22;42141;53.240;6.580;2022-07-23T11:42:26;21.50;99.90
56234;DHT22;42141;53.240;6.580;2022-07-23T11:45:10;21.50;99.90
56234;DHT22;42141;53.240;6.580;2022-07-23T11:47:47;21.40;99.90
56234;DHT22;42141;53.240;6.580;2022-07-23T11:50:23;21.30;99.90
56234;DHT22;42141;53.240;6.580;2022-07-23T11:52:49;20.80;99.90
56234;DHT22;42141;53.240;6.580;2022-07-23T11:55:16;21.40;99.90
56234;DHT22;42141;53.240;6.580;2022-07-23T11:57:42;21.10;99.90
56234;DHT22;42141;53.240;6.580;2022-07-23T12:00:17;21.60;99.90
56234;DHT22;42141;53.240;6.580;2022-07-23T12:02:50;21.80;99.90
56234;DHT22;42141;53.240;6.580;2022-07-23T12:05:25;22.20;99.90
56234;DHT22;42141;53.240;6.580;2022-07-23T12:07:52;22.40;99.90
56234;DHT22;42141;53.240;6.580;2022-07-23T12:10:24;22.50;99.90
56234;DHT22;42141;53.240;6.580;2022-07-23T12:13:03;22.50;99.90
56234;DHT22;42141;53.240;6.580;2022-07-23T12:15:36;22.50;99.90
56234;DHT22;42141;53.240;6.580;2022-07-23T12:18:06;22.60;99.90
56234;DHT22;42141;53.240;6.580;2022-07-23T12:20:40;22.70;99.90
56234;DHT22;42141;53.240;6.580;2022-07-23T12:23:09;22.70;99.90
56234;DHT22;42141;53.240;6.580;2022-07-23T12:25:38;22.70;99.90
56234;DHT22;42141;53.240;6.580;2022-07-23T12:28:16;22.20;99.90
56234;DHT22;42141;53.240;6.580;2022-07-23T12:30:52;22.50;99.90
56234;DHT22;42141;53.240;6.580;2022-07-23T12:33:44;22.60;99.90
56234;DHT22;42141;53.240;6.580;2022-07-23T12:36:10;22.70;99.90
56234;DHT22;42141;53.240;6.580;2022-07-23T12:38:39;22.70;99.90
56234;DHT22;42141;53.240;6.580;2022-07-23T12:41:09;23.50;99.90
56234;DHT22;42141;53.240;6.580;2022-07-23T12:43:40;22.60;99.90
56234;DHT22;42141;53.240;6.580;2022-07-23T12:46:17;23.70;99.90
56234;DHT22;42141;53.240;6.580;2022-07-23T12:51:23;23.80;99.20
56234;DHT22;42141;53.240;6.580;2022-07-23T12:53:51;24.00;99.00
56234;DHT22;42141;53.240;6.580;2022-07-23T12:56:30;24.10;98.70
56234;DHT22;42141;53.240;6.580;2022-07-23T12:58:58;24.20;97.40
56234;DHT22;42141;53.240;6.580;2022-07-23T13:01:34;24.30;98.60
56234;DHT22;42141;53.240;6.580;2022-07-23T13:06:54;24.70;97.50
56234;DHT22;42141;53.240;6.580;2022-07-23T13:09:22;24.60;97.30
56234;DHT22;42141;53.240;6.580;2022-07-23T13:11:50;24.50;98.10
56234;DHT22;42141;53.240;6.580;2022-07-23T13:14:18;24.60;98.70
56234;DHT22;42141;53.240;6.580;2022-07-23T13:16:45;24.70;97.90
56234;DHT22;42141;53.240;6.580;2022-07-23T13:19:11;24.40;97.60
56234;DHT22;42141;53.240;6.580;2022-07-23T13:21:38;24.30;97.80
56234;DHT22;42141;53.240;6.580;2022-07-23T13:24:04;24.30;97.90
56234;DHT22;42141;53.240;6.580;2022-07-23T13:26:30;24.50;98.10
56234;DHT22;42141;53.240;6.580;2022-07-23T13:28:56;24.70;97.30
56234;DHT22;42141;53.240;6.580;2022-07-23T13:31:22;24.80;96.40
56234;DHT22;42141;53.240;6.580;2022-07-23T13:33:48;24.70;96.30
56234;DHT22;42141;53.240;6.580;2022-07-23T13:36:14;24.60;96.40
56234;DHT22;42141;53.240;6.580;2022-07-23T13:38:40;24.60;97.70
56234;DHT22;42141;53.240;6.580;2022-07-23T13:41:07;24.50;97.40
56234;DHT22;42141;53.240;6.580;2022-07-23T13:43:33;24.40;96.80
56234;DHT22;42141;53.240;6.580;2022-07-23T13:45:59;24.40;97.00
56234;DHT22;42141;53.240;6.580;2022-07-23T13:48:24;24.40;96.80
56234;DHT22;42141;53.240;6.580;2022-07-23T13:50:53;24.50;96.60
56234;DHT22;42141;53.240;6.580;2022-07-23T13:53:22;24.60;96.60
56234;DHT22;42141;53.240;6.580;2022-07-23T13:55:49;24.80;95.90
56234;DHT22;42141;53.240;6.580;2022-07-23T13:58:16;24.70;95.60
56234;DHT22;42141;53.240;6.580;2022-07-23T14:00:45;24.80;95.40
56234;DHT22;42141;53.240;6.580;2022-07-23T14:03:11;24.80;96.10
56234;DHT22;42141;53.240;6.580;2022-07-23T14:05:38;24.90;95.40
56234;DHT22;42141;53.240;6.580;2022-07-23T14:08:05;24.90;94.90
56234;DHT22;42141;53.240;6.580;2022-07-23T14:10:31;25.00;94.60
56234;DHT22;42141;53.240;6.580;2022-07-23T14:12:57;25.00;95.40
56234;DHT22;42141;53.240;6.580;2022-07-23T14:15:26;25.10;94.70
56234;DHT22;42141;53.240;6.580;2022-07-23T14:17:56;25.10;95.00
56234;DHT22;42141;53.240;6.580;2022-07-23T14:20:23;25.10;94.90
56234;DHT22;42141;53.240;6.580;2022-07-23T14:22:49;25.20;94.00
56234;DHT22;42141;53.240;6.580;2022-07-23T14:25:18;25.10;93.60
56234;DHT22;42141;53.240;6.580;2022-07-23T14:27:44;25.20;94.40
56234;DHT22;42141;53.240;6.580;2022-07-23T14:30:11;25.30;94.30
56234;DHT22;42141;53.240;6.580;2022-07-23T14:32:37;25.30;94.20
56234;DHT22;42141;53.240;6.580;2022-07-23T14:35:04;25.20;93.60
56234;DHT22;42141;53.240;6.580;2022-07-23T14:37:30;25.10;94.60
56234;DHT22;42141;53.240;6.580;2022-07-23T14:39:56;25.00;94.50
56234;DHT22;42141;53.240;6.580;2022-07-23T14:42:22;24.70;94.60
56234;DHT22;42141;53.240;6.580;2022-07-23T14:44:47;24.50;95.10
56234;DHT22;42141;53.240;6.580;2022-07-23T14:47:13;24.50;95.10
56234;DHT22;42141;53.240;6.580;2022-07-23T14:49:39;24.60;94.80
56234;DHT22;42141;53.240;6.580;2022-07-23T14:52:05;24.70;94.90
56234;DHT22;42141;53.240;6.580;2022-07-23T14:54:31;24.50;94.40
56234;DHT22;42141;53.240;6.580;2022-07-23T14:56:59;25.10;94.50
56234;DHT22;42141;53.240;6.580;2022-07-23T14:59:26;25.20;94.40
56234;DHT22;42141;53.240;6.580;2022-07-23T15:01:52;25.20;93.50
56234;DHT22;42141;53.240;6.580;2022-07-23T15:04:18;25.00;93.50
56234;DHT22;42141;53.240;6.580;2022-07-23T15:06:44;24.70;94.50
56234;DHT22;42141;53.240;6.580;2022-07-23T15:09:10;24.50;95.00
56234;DHT22;42141;53.240;6.580;2022-07-23T15:11:36;24.30;96.10
56234;DHT22;42141;53.240;6.580;2022-07-23T15:14:07;24.40;96.10
56234;DHT22;42141;53.240;6.580;2022-07-23T15:16:33;24.60;96.40
56234;DHT22;42141;53.240;6.580;2022-07-23T15:18:59;24.90;96.00
56234;DHT22;42141;53.240;6.580;2022-07-23T15:21:25;24.90;95.80
56234;DHT22;42141;53.240;6.580;2022-07-23T15:23:51;25.00;95.10
56234;DHT22;42141;53.240;6.580;2022-07-23T15:26:20;25.10;94.90
56234;DHT22;42141;53.240;6.580;2022-07-23T15:28:48;25.20;94.40
56234;DHT22;42141;53.240;6.580;2022-07-23T15:31:14;25.40;94.00
56234;DHT22;42141;53.240;6.580;2022-07-23T15:33:39;25.30;93.50
56234;DHT22;42141;53.240;6.580;2022-07-23T15:36:06;25.10;93.80
56234;DHT22;42141;53.240;6.580;2022-07-23T15:38:31;24.80;93.80
56234;DHT22;42141;53.240;6.580;2022-07-23T15:40:57;24.70;94.80
56234;DHT22;42141;53.240;6.580;2022-07-23T15:43:24;24.70;95.60
56234;DHT22;42141;53.240;6.580;2022-07-23T15:45:51;24.70;95.70
56234;DHT22;42141;53.240;6.580;2022-07-23T15:48:19;24.90;96.00
56234;DHT22;42141;53.240;6.580;2022-07-23T15:50:45;25.00;96.10
56234;DHT22;42141;53.240;6.580;2022-07-23T15:53:12;25.20;95.60
56234;DHT22;42141;53.240;6.580;2022-07-23T15:55:38;25.30;95.60
56234;DHT22;42141;53.240;6.580;2022-07-23T15:58:05;25.30;95.70
56234;DHT22;42141;53.240;6.580;2022-07-23T16:00:31;25.10;95.00
56234;DHT22;42141;53.240;6.580;2022-07-23T16:02:57;25.00;95.30
56234;DHT22;42141;53.240;6.580;2022-07-23T16:05:23;25.00;96.40
56234;DHT22;42141;53.240;6.580;2022-07-23T16:07:58;25.00;96.40
56234;DHT22;42141;53.240;6.580;2022-07-23T16:10:24;24.90;96.10
56234;DHT22;42141;53.240;6.580;2022-07-23T16:12:50;24.80;96.90
56234;DHT22;42141;53.240;6.580;2022-07-23T16:15:16;24.60;97.30